メインページ
METAR-TAF:

METAR-TAF

空港 :

キャンベルリバー, ブリティッシュコロンビア州, カナダ

緯度: 49-57N, 経度: 125-16W, 海抜: 106m

現時点の気象観測

当レポートは8時間58分前の05:00(UTC)に作成
西の風 3kt
気温 0°C
湿度 100%
気圧 1019 hPa
視程: 24.1km
高度6500ftの雲はほとんどない

METAR: CYBL 200500Z 28003KT 15SM FEW065 00/M00 A3010 RMK SC2 LAST STFD OBS/NEXT 201400 UTC SLP197

時間: 05:58 (13:58 UTC)

予報

当レポートは13時間20分前の00:38(UTC)に作成
予報は20日の 01時(UTC)から 20日の 05時(UTC)まで有効
変向風 3kt
視程: 10km
高度1000ftの雲は散在している
高度4000ftの雲は散在している
高度8000ftの千切れ雲あり
20日の 01時(UTC)から 20日の 05時(UTC)まで一時的に
視程: 10km
高度1000ftの雲は散在している
高度3000ftの千切れ雲あり
弱いにわか雨

TAF: CYBL 200038Z 2001/2005 VRB03KT P6SM SCT010 SCT040 BKN080 TEMPO 2001/2005 P6SM -SHRA SCT010 BKN030 RMK NXT FCST WILL BE ISSUED AT 201545Z

4,000以上の空港の気象観測と天気予報(METAR報とTAF報)

利用可能な観測所は地図上に黄色い丸と赤い丸で示す。

丸の上にカーソルを重ねると観測所名を参照できる。

次にクリックすると気象観測と天気予報を参照できる。

マップの切り替え:黒色「×」印の緑ボタンをクリックして拡大、「-」印の緑ボタンをクリックして縮小、緑色の三角印をクリックして隣りの地図に切り替え


METAR-TAF: